Airfield :
LOGIN :

Register | Disclaimer

   EN    FR    IT 

 










Legend :    VFR   Marginal VFR   IFR   Intensive IFR   Very Intensive IFR
Visi :
Ceiling :
>= 8 km
>= 3000ft
5 to 8 km
1000 to 3000 ft
1500m to 5 km
500 to 1000 ft
800 to 1500m
200 to 500 ft
< 800m
< 200 ft
Symbols :   Thunderstorms  Fog  Heavy snow  Heavy precipitations  Wind > 20 kt
SIGMETs :     Misc.  Thunderstorms  Icing  Turbulence  Mountain Waves  Volcanic Ashes






- Airport Elevation : 3680 ft


GMFB - Bouarfa

CURRENT METAR :
  • 170000Z AUTO VRB03KT 5000 SCT030 29/06 Q1017 NOSIG

EXPIRED METARs :
  • 162300Z AUTO 15009KT 5000 SCT030 30/07 Q1017 NOSIG
  • 162200Z AUTO 19020KT 5000 SCT030 31/08 Q1017 NOSIG
  • 162100Z AUTO 22010KT 5000 SCT030 31/06 Q1016 NOSIG
  • 162000Z AUTO 26004KT 5000 SCT030 31/03 Q1015 NOSIG

TAF N/A



MET'MAP, your aeronautical weather chart ! - Copyright ORBIFLY December 2007 - Disclaimer

ORBIFLY MET'MAP TEAM :

Programming & Development : Alexandra Zaïnal
Original concept : Baudouin d'Aumeries
Technical & hardware support : Manuel Goepfert
Assistance : Marc-Olivier Méhu




SOURCES & CREDITS :

   NOAA